Time;durP1;ratioP1;P1;durP2;ratioP2;P2;SDS_P1;SDS_P2;PMS_P1;PMS_P2;Temp;Humidity;BMP_temperature;BMP_pressure;BME280_temperature;BME280_humidity;BME280_pressure;Samples;Min_cycle;Max_cycle;Signal;HPM_P1;HPM_P2
2020/12/15 00:00:20;;;;;;;20.57;13.10;;;;;;;2.59;100.00;96024.81;5073309;28;20199;-67
2020/12/15 00:02:47;;;;;;;23.20;14.90;;;;;;;2.50;100.00;96016.69;5073188;28;20710;-69
2020/12/15 00:05:15;;;;;;;24.63;13.97;;;;;;;2.54;100.00;96027.28;5073432;28;20200;-68
2020/12/15 00:07:42;;;;;;;26.10;14.23;;;;;;;2.50;100.00;96021.81;5073373;28;20280;-68
2020/12/15 00:10:09;;;;;;;24.57;14.07;;;;;;;2.50;100.00;96019.25;5073201;28;20282;-68
2020/12/15 00:12:36;;;;;;;21.83;13.33;;;;;;;2.49;100.00;96022.06;5073134;28;20205;-66
2020/12/15 00:15:03;;;;;;;21.03;12.73;;;;;;;2.46;100.00;96023.28;5072964;28;20205;-70
2020/12/15 00:17:30;;;;;;;19.80;12.20;;;;;;;2.36;100.00;96017.97;5073054;28;20686;-69
2020/12/15 00:19:56;;;;;;;18.70;11.50;;;;;;;2.33;100.00;96015.88;5073001;28;20195;-68
2020/12/15 00:22:24;;;;;;;19.43;11.27;;;;;;;2.23;100.00;96015.69;5072974;28;20223;-68
2020/12/15 00:24:51;;;;;;;22.50;12.27;;;;;;;2.21;100.00;96022.03;5072846;28;20283;-68
2020/12/15 00:27:18;;;;;;;20.67;12.20;;;;;;;2.13;100.00;96018.81;5072878;28;20200;-69
2020/12/15 00:29:44;;;;;;;20.87;12.47;;;;;;;2.17;100.00;96021.72;5072809;28;20203;-67
2020/12/15 00:32:11;;;;;;;22.30;13.10;;;;;;;2.10;100.00;96026.19;5072956;28;20605;-67
2020/12/15 00:34:38;;;;;;;25.53;13.87;;;;;;;2.08;100.00;96025.63;5072762;28;20687;-69
2020/12/15 00:37:05;;;;;;;19.23;11.90;;;;;;;2.02;100.00;96022.19;5072937;28;20200;-68
2020/12/15 00:39:32;;;;;;;20.13;12.27;;;;;;;1.96;100.00;96015.41;5072600;28;20207;-69
2020/12/15 00:41:59;;;;;;;20.47;11.33;;;;;;;1.91;100.00;96027.31;5072647;28;20605;-68
2020/12/15 00:44:26;;;;;;;22.03;12.53;;;;;;;1.85;100.00;96021.31;5072807;28;20235;-69
2020/12/15 00:46:53;;;;;;;19.40;11.93;;;;;;;1.87;100.00;96021.88;5072451;28;20201;-68
2020/12/15 00:49:19;;;;;;;21.53;12.77;;;;;;;1.86;100.00;96016.97;5072397;28;20208;-67
2020/12/15 00:51:47;;;;;;;24.40;13.63;;;;;;;1.92;100.00;96018.66;5072426;28;20521;-67
2020/12/15 00:54:14;;;;;;;21.93;12.53;;;;;;;1.91;100.00;96012.72;5072359;28;20206;-68
2020/12/15 00:56:42;;;;;;;24.20;11.80;;;;;;;1.90;100.00;96016.28;5072335;28;20670;-66
2020/12/15 00:59:09;;;;;;;19.60;11.00;;;;;;;1.81;100.00;96012.53;5071393;28;20200;-66
2020/12/15 01:01:36;;;;;;;20.17;11.97;;;;;;;1.83;100.00;96014.88;5071905;28;20659;-67
2020/12/15 01:04:03;;;;;;;19.80;11.70;;;;;;;1.75;100.00;96005.72;5072064;28;20228;-68
2020/12/15 01:06:29;;;;;;;21.43;11.70;;;;;;;1.68;100.00;96012.78;5072303;28;20569;-68
2020/12/15 01:08:56;;;;;;;23.30;12.37;;;;;;;1.71;100.00;96014.88;5072022;28;20560;-68
2020/12/15 01:11:28;;;;;;;23.00;12.97;;;;;;;1.81;100.00;96022.78;5071975;28;20232;-68
2020/12/15 01:13:55;;;;;;;26.90;13.50;;;;;;;1.79;100.00;96019.69;5071953;28;20199;-68
2020/12/15 01:16:22;;;;;;;28.37;15.23;;;;;;;1.72;100.00;96017.22;5071906;28;20197;-68
2020/12/15 01:18:49;;;;;;;22.77;13.10;;;;;;;1.85;100.00;96026.44;5071838;28;20200;-67
2020/12/15 01:21:16;;;;;;;26.27;14.40;;;;;;;1.80;100.00;96017.88;5071884;28;20205;-67
2020/12/15 01:23:42;;;;;;;21.60;12.80;;;;;;;1.90;100.00;96020.63;5071750;28;20728;-68
2020/12/15 01:26:09;;;;;;;24.13;13.57;;;;;;;1.86;100.00;96022.88;5072026;28;20203;-69
2020/12/15 01:28:36;;;;;;;22.60;13.03;;;;;;;1.82;100.00;96024.34;5071732;28;20357;-66
2020/12/15 01:31:03;;;;;;;23.60;12.50;;;;;;;1.83;100.00;96020.78;5071732;28;20195;-68
2020/12/15 01:33:30;;;;;;;22.00;12.50;;;;;;;1.79;100.00;96024.03;5071607;28;20611;-68
2020/12/15 01:35:57;;;;;;;22.40;12.40;;;;;;;1.72;100.00;96021.56;5071431;28;20197;-68
2020/12/15 01:38:24;;;;;;;20.90;12.80;;;;;;;1.63;100.00;96016.00;5071435;28;20199;-69
2020/12/15 01:40:52;;;;;;;22.43;13.20;;;;;;;1.65;100.00;96013.19;5071485;28;20260;-68
2020/12/15 01:43:19;;;;;;;21.97;11.77;;;;;;;1.69;100.00;96020.22;5071432;28;20322;-65
2020/12/15 01:45:45;;;;;;;18.47;12.00;;;;;;;1.62;100.00;96023.91;5071710;28;20198;-68
2020/12/15 01:48:13;;;;;;;20.90;12.70;;;;;;;1.49;100.00;96026.69;5071408;28;20286;-67
2020/12/15 01:50:41;;;;;;;21.00;12.93;;;;;;;1.51;100.00;96019.56;5071313;28;20200;-67
2020/12/15 01:53:10;;;;;;;22.53;13.23;;;;;;;1.43;100.00;96015.56;5071431;28;20277;-68
2020/12/15 01:55:38;;;;;;;21.37;12.77;;;;;;;1.43;100.00;96013.00;5071422;28;20193;-68
2020/12/15 01:58:06;;;;;;;21.67;12.53;;;;;;;1.40;100.00;96020.34;5071423;28;20275;-68
2020/12/15 02:00:33;;;;;;;23.47;12.93;;;;;;;1.42;100.00;96020.91;5071050;28;20211;-68
2020/12/15 02:03:00;;;;;;;16.90;10.80;;;;;;;1.32;100.00;96016.34;5070992;28;20236;-69
2020/12/15 02:05:27;;;;;;;18.57;11.63;;;;;;;1.30;100.00;96015.75;5070838;28;20574;-67
2020/12/15 02:07:54;;;;;;;17.50;11.00;;;;;;;1.31;100.00;96019.88;5070999;28;20196;-67
2020/12/15 02:10:21;;;;;;;18.00;11.23;;;;;;;1.18;100.00;96018.34;5070613;28;20214;-67
2020/12/15 02:12:50;;;;;;;17.03;10.40;;;;;;;1.23;100.00;96012.56;5070762;28;20579;-67
2020/12/15 02:15:16;;;;;;;19.30;11.17;;;;;;;1.17;100.00;96016.00;5070851;28;20199;-67
2020/12/15 02:17:43;;;;;;;15.83;10.30;;;;;;;1.13;100.00;96018.22;5070781;28;20197;-68
2020/12/15 02:20:11;;;;;;;17.90;10.33;;;;;;;1.12;100.00;96026.88;5070672;28;20193;-67
2020/12/15 02:22:39;;;;;;;19.97;12.07;;;;;;;1.17;100.00;96026.22;5070486;28;20188;-67
2020/12/15 02:25:07;;;;;;;21.90;14.00;;;;;;;1.12;100.00;96026.88;5070748;28;20234;-68
2020/12/15 02:27:34;;;;;;;24.27;14.23;;;;;;;1.14;100.00;96012.09;5070555;28;20590;-67
2020/12/15 02:30:00;;;;;;;25.97;15.47;;;;;;;1.27;100.00;96017.00;5070604;28;20207;-68
2020/12/15 02:32:27;;;;;;;25.77;14.53;;;;;;;1.27;100.00;96013.66;5070534;28;20211;-67
2020/12/15 02:34:57;;;;;;;24.53;14.10;;;;;;;1.37;100.00;96025.91;5070454;28;20696;-68
2020/12/15 02:37:24;;;;;;;22.93;12.70;;;;;;;1.38;100.00;96020.56;5070467;28;20194;-67
2020/12/15 02:39:52;;;;;;;21.23;12.17;;;;;;;1.27;100.00;96027.25;5070321;28;20200;-68
2020/12/15 02:42:18;;;;;;;21.33;12.57;;;;;;;1.27;100.00;96023.91;5070135;28;20746;-67
2020/12/15 02:44:45;;;;;;;19.47;11.97;;;;;;;1.32;100.00;96024.00;5070142;28;20224;-68
2020/12/15 02:47:12;;;;;;;25.20;14.20;;;;;;;1.39;100.00;96018.78;5070154;28;20667;-67
2020/12/15 02:49:39;;;;;;;19.60;11.90;;;;;;;1.47;100.00;96023.56;5070185;28;20201;-67
2020/12/15 02:52:06;;;;;;;19.23;11.70;;;;;;;1.46;100.00;96024.56;5070457;28;20196;-68
2020/12/15 02:54:32;;;;;;;21.53;11.73;;;;;;;1.54;100.00;96032.72;5070267;28;20698;-68
2020/12/15 02:57:00;;;;;;;21.90;12.43;;;;;;;1.49;100.00;96030.06;5070319;28;20193;-68
2020/12/15 02:59:27;;;;;;;18.27;10.80;;;;;;;1.66;100.00;96036.03;5070040;28;20687;-68
2020/12/15 03:01:54;;;;;;;20.53;11.43;;;;;;;1.65;100.00;96034.47;5070385;28;20671;-67
2020/12/15 03:04:20;;;;;;;20.90;11.97;;;;;;;1.76;100.00;96037.25;5070169;28;20253;-69
2020/12/15 03:06:47;;;;;;;18.40;10.87;;;;;;;1.87;100.00;96039.81;5070292;28;20280;-68
2020/12/15 03:09:14;;;;;;;17.77;11.37;;;;;;;1.87;100.00;96042.38;5070094;28;20200;-67
2020/12/15 03:11:41;;;;;;;19.13;10.50;;;;;;;1.94;100.00;96044.84;5070038;28;20571;-67
2020/12/15 03:14:09;;;;;;;15.03;9.73;;;;;;;1.96;100.00;96043.59;5069685;28;20190;-67
2020/12/15 03:16:36;;;;;;;15.67;9.67;;;;;;;1.98;100.00;96044.16;5069876;28;20583;-67
2020/12/15 03:19:03;;;;;;;18.00;11.20;;;;;;;2.03;100.00;96051.16;5070355;28;20241;-68
2020/12/15 03:21:30;;;;;;;17.63;10.23;;;;;;;1.97;100.00;96054.63;5070125;28;20200;-67
2020/12/15 03:23:57;;;;;;;14.30;9.43;;;;;;;2.02;100.00;96054.72;5072565;28;20231;-66
2020/12/15 03:26:24;;;;;;;14.40;9.27;;;;;;;2.01;100.00;96053.16;5074142;28;20203;-69
2020/12/15 03:28:51;;;;;;;15.27;10.03;;;;;;;2.04;100.00;96053.47;5073997;28;20577;-68
2020/12/15 03:31:18;;;;;;;16.53;9.97;;;;;;;2.04;100.00;96053.47;5074093;28;20202;-67
2020/12/15 03:33:46;;;;;;;15.33;9.43;;;;;;;1.96;100.00;96050.50;5074113;28;20671;-67
2020/12/15 03:36:14;;;;;;;15.47;9.77;;;;;;;1.99;100.00;96052.63;5074052;28;20269;-67
2020/12/15 03:38:40;;;;;;;15.67;10.53;;;;;;;1.98;100.00;96053.63;5073789;28;20202;-67
2020/12/15 03:41:07;;;;;;;17.40;9.30;;;;;;;1.99;100.00;96057.75;5073381;28;20279;-67
2020/12/15 03:43:34;;;;;;;18.43;11.13;;;;;;;1.93;100.00;96061.22;5073615;28;20726;-68
2020/12/15 03:46:01;;;;;;;17.20;10.73;;;;;;;1.88;100.00;96063.66;5073557;28;20590;-65
2020/12/15 03:48:29;;;;;;;19.20;10.83;;;;;;;1.91;100.00;96063.19;5073611;28;20196;-67
2020/12/15 03:50:55;;;;;;;19.00;11.10;;;;;;;1.97;100.00;96070.00;5073527;28;20199;-67
2020/12/15 03:53:22;;;;;;;18.57;11.10;;;;;;;1.95;100.00;96072.78;5073541;28;20568;-67
2020/12/15 03:55:49;;;;;;;17.47;10.83;;;;;;;2.01;100.00;96073.66;5073495;28;20209;-68
2020/12/15 03:58:16;;;;;;;17.17;10.70;;;;;;;2.01;100.00;96081.34;5073552;28;20197;-68
2020/12/15 04:00:42;;;;;;;19.43;11.77;;;;;;;2.03;100.00;96076.78;5073475;28;20210;-67
2020/12/15 04:03:09;;;;;;;22.90;12.20;;;;;;;2.11;100.00;96082.34;5073371;28;20230;-68
2020/12/15 04:05:37;;;;;;;23.13;13.40;;;;;;;2.18;100.00;96084.81;5073325;28;20680;-67
2020/12/15 04:08:04;;;;;;;23.73;13.23;;;;;;;2.23;100.00;96087.47;5073162;28;20302;-68
2020/12/15 04:10:31;;;;;;;22.97;13.13;;;;;;;2.25;100.00;96088.00;5073360;28;20214;-66
2020/12/15 04:12:58;;;;;;;24.30;13.77;;;;;;;2.32;100.00;96087.88;5073327;28;20192;-68
2020/12/15 04:15:24;;;;;;;23.47;13.60;;;;;;;2.34;100.00;96094.34;5073248;28;20198;-68
2020/12/15 04:17:51;;;;;;;23.73;14.07;;;;;;;2.35;100.00;96090.00;5073281;28;20557;-67
2020/12/15 04:20:18;;;;;;;22.80;12.77;;;;;;;2.39;100.00;96094.44;5073134;28;20201;-66
2020/12/15 04:22:46;;;;;;;22.53;13.17;;;;;;;2.37;100.00;96093.91;5073010;28;20601;-67
2020/12/15 04:25:13;;;;;;;21.43;13.37;;;;;;;2.37;100.00;96093.91;5072816;28;20239;-67
2020/12/15 04:27:40;;;;;;;21.37;12.50;;;;;;;2.35;100.00;96098.47;5073165;28;20207;-68
2020/12/15 04:30:07;;;;;;;23.63;12.73;;;;;;;2.30;100.00;96100.94;5072943;28;20199;-68
2020/12/15 04:32:33;;;;;;;25.73;12.97;;;;;;;2.26;100.00;96106.72;5072838;28;20218;-68
2020/12/15 04:35:00;;;;;;;23.30;13.63;;;;;;;2.37;100.00;96109.28;5072547;28;20201;-67
2020/12/15 04:37:27;;;;;;;24.43;13.57;;;;;;;2.34;100.00;96114.84;5072524;28;20207;-67
2020/12/15 04:39:55;;;;;;;25.00;13.97;;;;;;;2.36;100.00;96112.06;5072508;28;20727;-67
2020/12/15 04:42:22;;;;;;;20.43;11.90;;;;;;;2.32;100.00;96121.22;5072470;28;20242;-68
2020/12/15 04:44:51;;;;;;;23.93;13.80;;;;;;;2.29;100.00;96122.44;5072500;28;20232;-68
2020/12/15 04:47:20;;;;;;;23.30;13.50;;;;;;;2.34;100.00;96117.41;5072583;28;20204;-69
2020/12/15 04:49:59;;;;;;;22.63;14.17;;;;;;;2.31;100.00;96130.69;5072491;28;20715;-69
2020/12/15 04:52:39;;;;;;;20.47;13.20;;;;;;;2.31;100.00;96125.56;5072709;28;20584;-68
2020/12/15 04:55:07;;;;;;;23.67;14.20;;;;;;;2.30;100.00;96130.91;5072622;28;20204;-68
2020/12/15 04:57:35;;;;;;;25.80;14.20;;;;;;;2.37;100.00;96126.47;5072355;28;20196;-68
2020/12/15 05:00:04;;;;;;;24.67;14.20;;;;;;;2.41;100.00;96137.81;5072419;28;20261;-67
2020/12/15 05:02:31;;;;;;;24.17;14.10;;;;;;;2.45;100.00;96139.69;5072371;28;20237;-68
2020/12/15 05:04:59;;;;;;;23.77;13.70;;;;;;;2.39;100.00;96142.41;5072034;28;20644;-67
2020/12/15 05:07:26;;;;;;;24.43;14.83;;;;;;;2.41;100.00;96145.50;5072140;28;20196;-66
2020/12/15 05:09:52;;;;;;;23.40;13.97;;;;;;;2.44;100.00;96135.56;5072278;28;20207;-68
2020/12/15 05:12:20;;;;;;;23.80;14.10;;;;;;;2.39;100.00;96137.28;5072109;28;20201;-68
2020/12/15 05:14:51;;;;;;;22.67;13.40;;;;;;;2.45;100.00;96144.06;5071976;28;20203;-66
2020/12/15 05:17:24;;;;;;;23.40;13.67;;;;;;;2.42;100.00;96147.84;5072165;28;20578;-68
2020/12/15 05:19:51;;;;;;;24.90;14.93;;;;;;;2.54;100.00;96151.16;5071882;28;20682;-68
2020/12/15 05:22:18;;;;;;;23.43;13.33;;;;;;;2.55;100.00;96149.38;5071993;28;20206;-67
2020/12/15 05:24:49;;;;;;;22.50;14.03;;;;;;;2.45;100.00;96151.75;5071791;28;20317;-69
2020/12/15 05:27:16;;;;;;;23.67;13.90;;;;;;;2.53;100.00;96156.53;5071703;28;20686;-68
2020/12/15 05:29:44;;;;;;;25.03;13.50;;;;;;;2.40;100.00;96157.56;5071610;28;20197;-68
2020/12/15 05:32:11;;;;;;;22.80;13.30;;;;;;;2.40;100.00;96162.69;5071817;28;20211;-68
2020/12/15 05:34:38;;;;;;;27.00;14.10;;;;;;;2.43;100.00;96164.03;5071603;28;20196;-69
2020/12/15 05:37:05;;;;;;;21.87;12.80;;;;;;;2.49;100.00;96155.44;5071536;28;20280;-69
2020/12/15 05:39:32;;;;;;;22.07;12.10;;;;;;;2.48;100.00;96157.22;5071495;28;20233;-66
2020/12/15 05:42:04;;;;;;;23.23;13.43;;;;;;;2.39;100.00;96165.50;5071181;28;21033;-68
2020/12/15 05:44:31;;;;;;;22.77;13.23;;;;;;;2.40;100.00;96164.47;5071341;28;20234;-68
2020/12/15 05:47:01;;;;;;;26.30;14.43;;;;;;;2.28;100.00;96167.06;5070637;28;20582;-68
2020/12/15 05:49:30;;;;;;;23.43;13.43;;;;;;;2.23;100.00;96159.25;5071368;28;20612;-64
2020/12/15 05:51:56;;;;;;;22.27;14.00;;;;;;;2.08;100.00;96167.41;5071325;28;20199;-68
2020/12/15 05:54:24;;;;;;;22.10;12.93;;;;;;;2.06;100.00;96168.59;5071240;28;20195;-68
2020/12/15 05:57:01;;;;;;;23.17;13.53;;;;;;;1.95;100.00;96166.81;5070989;28;20285;-67
2020/12/15 05:59:28;;;;;;;24.60;14.13;;;;;;;1.95;100.00;96169.38;5071122;28;20226;-66
2020/12/15 06:02:03;;;;;;;23.33;13.23;;;;;;;2.04;100.00;96162.94;5070874;28;20197;-67
2020/12/15 06:04:32;;;;;;;27.13;14.10;;;;;;;2.05;100.00;96172.94;5070822;28;20224;-67
2020/12/15 06:07:01;;;;;;;25.33;13.73;;;;;;;2.04;100.00;96170.63;5070956;28;20207;-69
2020/12/15 06:09:30;;;;;;;24.60;13.33;;;;;;;1.88;100.00;96172.06;5070843;28;20281;-67
2020/12/15 06:11:57;;;;;;;22.43;14.03;;;;;;;1.94;100.00;96178.09;5070795;28;20248;-67
2020/12/15 06:14:25;;;;;;;21.50;12.20;;;;;;;1.96;100.00;96184.53;5070788;28;20666;-68
2020/12/15 06:16:52;;;;;;;25.33;14.63;;;;;;;1.92;100.00;96191.13;5070741;28;20231;-68
2020/12/15 06:19:21;;;;;;;27.00;14.73;;;;;;;1.97;100.00;96185.31;5070842;28;20207;-68
2020/12/15 06:21:51;;;;;;;26.53;15.27;;;;;;;2.09;100.00;96186.88;5070518;28;20232;-67
2020/12/15 06:24:26;;;;;;;24.33;13.83;;;;;;;2.07;100.00;96195.81;5070528;28;20227;-68
2020/12/15 06:26:57;;;;;;;24.90;14.17;;;;;;;2.10;100.00;96195.34;5070591;28;20193;-68
2020/12/15 06:29:34;;;;;;;25.23;14.37;;;;;;;2.09;100.00;96189.44;5070488;28;20229;-67
2020/12/15 06:32:04;;;;;;;27.30;16.03;;;;;;;2.07;100.00;96185.56;5070365;28;20243;-69
2020/12/15 06:34:32;;;;;;;27.40;15.20;;;;;;;2.29;100.00;96189.09;5070873;28;20280;-68
2020/12/15 06:37:00;;;;;;;24.97;15.03;;;;;;;2.30;100.00;96182.97;5070567;28;20686;-64
2020/12/15 06:39:28;;;;;;;25.10;15.20;;;;;;;2.40;100.00;96185.75;5070769;28;20287;-67
2020/12/15 06:42:00;;;;;;;26.13;15.90;;;;;;;2.44;100.00;96186.88;5070666;28;20230;-63
2020/12/15 06:44:32;;;;;;;25.93;14.97;;;;;;;2.40;100.00;96192.66;5070298;28;20355;-68
2020/12/15 06:47:00;;;;;;;25.50;15.30;;;;;;;2.40;100.00;96200.38;5070267;28;20546;-68
2020/12/15 06:49:28;;;;;;;24.80;13.90;;;;;;;2.52;100.00;96191.66;5070240;28;20206;-67
2020/12/15 06:51:56;;;;;;;26.80;15.30;;;;;;;2.64;100.00;96190.88;5070209;28;20581;-68
2020/12/15 06:54:28;;;;;;;30.70;15.87;;;;;;;2.78;100.00;96192.19;5070211;28;20666;-67
2020/12/15 06:57:03;;;;;;;25.47;14.17;;;;;;;2.83;100.00;96200.00;5070102;28;20202;-67
2020/12/15 06:59:35;;;;;;;23.77;14.37;;;;;;;2.89;100.00;96199.09;5070348;28;20207;-67
2020/12/15 07:02:14;;;;;;;26.23;14.30;;;;;;;2.93;100.00;96206.09;5070332;28;20207;-66
2020/12/15 07:04:46;;;;;;;23.70;14.00;;;;;;;2.90;100.00;96208.31;5069991;28;20285;-68
2020/12/15 07:07:14;;;;;;;25.27;14.40;;;;;;;2.93;100.00;96206.09;5070143;28;20283;-67
2020/12/15 07:09:42;;;;;;;23.73;14.63;;;;;;;2.99;100.00;96207.75;5070306;28;20200;-69
2020/12/15 07:12:13;;;;;;;20.57;13.00;;;;;;;3.10;100.00;96208.72;5070133;28;20195;-68
2020/12/15 07:14:43;;;;;;;27.00;13.00;;;;;;;3.15;100.00;96213.94;5070120;28;20203;-68
2020/12/15 07:17:10;;;;;;;23.63;13.03;;;;;;;3.18;100.00;96212.72;5069913;28;20201;-68
2020/12/15 07:19:37;;;;;;;22.27;13.10;;;;;;;3.25;100.00;96216.72;5070151;28;20227;-69
2020/12/15 07:22:05;;;;;;;21.53;13.27;;;;;;;3.34;100.00;96217.91;5069781;28;20192;-67
2020/12/15 07:24:32;;;;;;;24.03;13.43;;;;;;;3.37;100.00;96219.25;5069877;28;20227;-67
2020/12/15 07:27:00;;;;;;;24.60;14.50;;;;;;;3.35;100.00;96219.47;5070034;28;20207;-68
2020/12/15 07:29:27;;;;;;;24.87;14.17;;;;;;;3.56;100.00;96237.81;5069901;28;20720;-68
2020/12/15 07:31:54;;;;;;;18.60;11.30;;;;;;;3.65;100.00;96224.34;5069867;28;20222;-67
2020/12/15 07:34:21;;;;;;;23.00;12.83;;;;;;;3.61;100.00;96222.47;5069863;28;20279;-68
2020/12/15 07:36:49;;;;;;;20.83;12.80;;;;;;;3.73;100.00;96226.56;5069769;28;20198;-70
2020/12/15 07:39:17;;;;;;;19.17;11.43;;;;;;;3.87;100.00;96237.34;5069810;28;20287;-68
2020/12/15 07:41:54;;;;;;;19.20;11.20;;;;;;;4.01;100.00;96243.72;5069441;28;20235;-68
2020/12/15 07:44:22;;;;;;;17.57;10.70;;;;;;;4.19;100.00;96240.91;5069755;28;20240;-68
2020/12/15 07:46:49;;;;;;;15.63;9.50;;;;;;;4.20;100.00;96237.34;5069686;28;20269;-69
2020/12/15 07:49:16;;;;;;;15.77;10.37;;;;;;;4.46;100.00;96240.28;5069633;28;20197;-68
2020/12/15 07:51:44;;;;;;;12.47;8.47;;;;;;;4.39;99.99;96242.22;5069951;28;20201;-68
2020/12/15 07:54:11;;;;;;;11.73;8.53;;;;;;;4.52;100.00;96245.28;5070126;28;20236;-70
2020/12/15 07:56:38;;;;;;;13.60;8.57;;;;;;;4.62;100.00;96250.56;5069440;28;20580;-69
2020/12/15 07:59:11;;;;;;;13.37;8.63;;;;;;;4.73;99.48;96254.81;5069725;28;20200;-69
2020/12/15 08:01:40;;;;;;;12.40;7.97;;;;;;;4.92;98.50;96254.56;5069531;28;20200;-68
2020/12/15 08:04:08;;;;;;;13.03;8.17;;;;;;;4.91;99.37;96253.78;5069373;28;20228;-68
2020/12/15 08:06:37;;;;;;;12.90;7.80;;;;;;;4.97;99.19;96257.97;5069608;28;20236;-69
2020/12/15 08:09:04;;;;;;;10.97;7.07;;;;;;;5.12;98.24;96247.09;5070364;28;20200;-70
2020/12/15 08:11:31;;;;;;;12.83;8.23;;;;;;;5.35;97.98;96256.34;5073304;28;20235;-66
2020/12/15 08:14:01;;;;;;;14.30;8.03;;;;;;;5.62;98.43;96252.81;5072862;28;20197;-70
2020/12/15 08:16:28;;;;;;;10.43;6.50;;;;;;;5.78;96.45;96261.44;5073052;28;20199;-69
2020/12/15 08:19:00;;;;;;;10.70;6.47;;;;;;;5.68;95.39;96263.91;5073228;28;20339;-69
2020/12/15 08:21:41;;;;;;;10.20;6.80;;;;;;;5.89;95.63;96265.72;5072943;28;20283;-69
2020/12/15 08:24:11;;;;;;;9.80;6.73;;;;;;;5.99;94.54;96260.63;5072907;28;20311;-68
2020/12/15 08:26:38;;;;;;;10.30;6.80;;;;;;;6.30;94.61;96266.84;5072795;28;20228;-68
2020/12/15 08:29:08;;;;;;;8.60;6.00;;;;;;;6.26;91.68;96262.41;5072858;28;20252;-68
2020/12/15 08:31:36;;;;;;;10.23;6.73;;;;;;;6.21;91.93;96260.56;5072638;28;20287;-71
2020/12/15 08:34:11;;;;;;;11.67;7.20;;;;;;;6.31;93.13;96272.78;5072852;28;20200;-71
2020/12/15 08:36:42;;;;;;;9.57;6.30;;;;;;;6.53;92.08;96265.69;5073003;28;20571;-70
2020/12/15 08:39:11;;;;;;;10.73;7.23;;;;;;;6.71;92.44;96265.31;5072667;28;20201;-70
2020/12/15 08:41:45;;;;;;;10.57;6.90;;;;;;;6.63;91.30;96270.94;5072741;28;20266;-70
2020/12/15 08:44:12;;;;;;;13.80;6.63;;;;;;;6.61;91.85;96280.75;5072679;28;20228;-69
2020/12/15 08:46:40;;;;;;;10.17;6.17;;;;;;;6.66;91.23;96278.19;5072595;28;20200;-69
2020/12/15 08:49:12;;;;;;;12.03;8.30;;;;;;;6.85;91.70;96274.19;5072380;28;20283;-70
2020/12/15 08:51:40;;;;;;;10.97;7.50;;;;;;;7.05;91.61;96278.66;5072687;28;20223;-68
2020/12/15 08:54:08;;;;;;;11.83;7.53;;;;;;;7.21;88.78;96276.94;5073116;28;20223;-70
2020/12/15 08:56:35;;;;;;;10.20;7.13;;;;;;;7.37;88.59;96270.81;5072745;28;20199;-71
2020/12/15 08:59:10;;;;;;;12.03;7.00;;;;;;;7.40;87.06;96280.63;5072621;28;20189;-70
2020/12/15 09:01:37;;;;;;;9.30;6.60;;;;;;;7.60;88.48;96280.69;5072479;28;20238;-70
2020/12/15 09:04:04;;;;;;;6.43;4.67;;;;;;;7.75;86.47;96272.19;5072494;28;20315;-70
2020/12/15 09:06:32;;;;;;;7.00;5.00;;;;;;;7.45;86.98;96272.91;5072086;28;20196;-72
2020/12/15 09:09:00;;;;;;;8.00;5.43;;;;;;;7.53;88.27;96272.38;5072325;28;20347;-70
2020/12/15 09:11:26;;;;;;;6.70;4.70;;;;;;;7.82;86.94;96271.97;5072176;28;20196;-71
2020/12/15 09:13:57;;;;;;;6.70;4.90;;;;;;;7.95;87.55;96267.06;5071877;28;20564;-70
2020/12/15 09:16:30;;;;;;;6.00;4.57;;;;;;;7.98;85.31;96270.94;5071865;28;20196;-70
2020/12/15 09:18:57;;;;;;;7.40;4.60;;;;;;;8.07;83.80;96270.16;5071957;28;20196;-72
2020/12/15 09:21:24;;;;;;;5.43;4.20;;;;;;;8.00;84.15;96266.28;5070605;28;20218;-71
2020/12/15 09:23:54;;;;;;;4.50;3.60;;;;;;;7.95;84.13;96266.28;5071861;28;20231;-71
2020/12/15 09:26:22;;;;;;;6.67;4.47;;;;;;;8.02;84.91;96266.81;5071915;28;20196;-72
2020/12/15 09:28:49;;;;;;;5.87;4.03;;;;;;;7.90;84.13;96261.09;5071867;28;20196;-71
2020/12/15 09:31:17;;;;;;;5.90;4.27;;;;;;;7.99;85.70;96262.16;5071853;28;20286;-72
2020/12/15 09:33:44;;;;;;;5.87;4.27;;;;;;;8.04;84.44;96257.75;5071509;28;20283;-71
2020/12/15 09:36:12;;;;;;;6.23;4.37;;;;;;;7.88;86.76;96252.81;5071582;28;20238;-70
2020/12/15 09:38:39;;;;;;;5.17;3.90;;;;;;;7.76;87.10;96247.88;5071715;28;20686;-71
2020/12/15 09:41:07;;;;;;;4.73;3.57;;;;;;;7.59;85.64;96247.31;5071187;28;20230;-70
2020/12/15 09:43:34;;;;;;;5.80;4.27;;;;;;;7.48;86.79;96246.50;5071416;28;20276;-71
2020/12/15 09:46:02;;;;;;;5.03;3.83;;;;;;;7.45;87.27;96246.25;5071435;28;20192;-71
2020/12/15 09:48:29;;;;;;;5.03;3.70;;;;;;;7.60;87.32;96243.72;5071236;28;20276;-72
2020/12/15 09:50:58;;;;;;;5.87;4.40;;;;;;;7.60;88.33;96239.31;5071403;28;20285;-69
2020/12/15 09:53:25;;;;;;;5.67;3.57;;;;;;;7.64;87.40;96240.34;5071218;28;20197;-72
2020/12/15 09:55:52;;;;;;;4.67;3.60;;;;;;;7.79;88.47;96242.97;5071334;28;20193;-70
2020/12/15 09:58:20;;;;;;;4.53;3.30;;;;;;;7.65;86.76;96236.75;5071039;28;20200;-72
2020/12/15 10:00:46;;;;;;;5.10;4.00;;;;;;;7.69;87.08;96231.81;5071062;28;20192;-71
2020/12/15 10:03:13;;;;;;;6.67;4.03;;;;;;;7.74;86.37;96237.78;5071249;28;20229;-72
2020/12/15 10:05:41;;;;;;;5.63;4.07;;;;;;;8.01;86.92;96229.03;5071068;28;20228;-72
2020/12/15 10:08:08;;;;;;;5.77;4.50;;;;;;;7.93;88.24;96229.53;5071068;28;20660;-72
2020/12/15 10:10:35;;;;;;;5.57;4.33;;;;;;;8.18;87.16;96219.97;5070958;28;20606;-70
2020/12/15 10:13:02;;;;;;;5.90;4.50;;;;;;;8.22;85.89;96226.16;5070813;28;20196;-71
2020/12/15 10:15:29;;;;;;;8.13;4.50;;;;;;;8.39;86.31;96225.94;5070693;28;20280;-72
2020/12/15 10:17:56;;;;;;;9.93;4.73;;;;;;;8.91;85.77;96227.38;5070696;28;20294;-71
2020/12/15 10:20:23;;;;;;;6.80;4.27;;;;;;;9.03;83.38;96230.44;5070547;28;20742;-70
2020/12/15 10:22:50;;;;;;;6.47;3.73;;;;;;;9.21;84.05;96227.28;5070685;28;20199;-71
2020/12/15 10:25:19;;;;;;;6.17;4.33;;;;;;;9.37;82.24;96226.16;5070490;28;20262;-73
2020/12/15 10:27:46;;;;;;;5.63;3.90;;;;;;;9.50;82.39;96230.00;5070862;28;20249;-73
2020/12/15 10:30:13;;;;;;;5.23;3.90;;;;;;;9.48;80.97;96232.06;5070472;28;20295;-69
2020/12/15 10:32:40;;;;;;;8.40;4.30;;;;;;;9.13;82.44;96225.22;5070249;28;20346;-69
2020/12/15 10:35:07;;;;;;;5.27;3.80;;;;;;;9.01;81.42;96227.34;5070407;28;20333;-73
2020/12/15 10:37:34;;;;;;;5.30;4.10;;;;;;;8.81;82.22;96224.81;5070627;28;20283;-73
2020/12/15 10:40:01;;;;;;;5.10;3.63;;;;;;;8.76;83.01;96225.63;5070531;28;20283;-70
2020/12/15 10:42:29;;;;;;;5.97;3.83;;;;;;;8.66;84.11;96220.47;5070500;28;20595;-73
2020/12/15 10:44:56;;;;;;;5.93;4.00;;;;;;;8.66;84.72;96225.63;5070485;28;20334;-73
2020/12/15 10:47:23;;;;;;;5.30;4.03;;;;;;;8.60;85.56;96214.50;5070428;28;20228;-72
2020/12/15 10:49:50;;;;;;;7.00;4.10;;;;;;;8.64;84.83;96212.94;5070140;28;20203;-72
2020/12/15 10:52:17;;;;;;;4.83;3.60;;;;;;;8.73;84.61;96210.56;5070402;28;20617;-73
2020/12/15 10:54:45;;;;;;;7.53;4.20;;;;;;;8.67;83.83;96210.88;5070276;28;20694;-72
2020/12/15 10:57:12;;;;;;;8.07;4.30;;;;;;;8.49;84.44;96209.59;5070593;28;20205;-73
2020/12/15 10:59:38;;;;;;;8.03;4.90;;;;;;;8.55;85.32;96209.34;5070147;28;20568;-73
2020/12/15 11:02:06;;;;;;;7.13;4.40;;;;;;;8.64;85.14;96205.16;5070101;28;20745;-73
2020/12/15 11:04:32;;;;;;;13.13;4.77;;;;;;;8.68;84.54;96207.22;5070178;28;20315;-74
2020/12/15 11:07:00;;;;;;;6.27;4.50;;;;;;;8.59;83.97;96200.00;5070055;28;20266;-73
2020/12/15 11:09:27;;;;;;;6.30;4.73;;;;;;;8.57;84.27;96198.69;5071346;28;20192;-68
2020/12/15 11:11:54;;;;;;;6.90;5.03;;;;;;;8.77;83.96;96203.06;5069997;28;20204;-73
2020/12/15 11:14:21;;;;;;;8.93;5.90;;;;;;;8.73;85.13;96189.84;5070049;28;20196;-73
2020/12/15 11:16:47;;;;;;;6.30;3.83;;;;;;;8.60;82.20;96191.19;5070040;28;20232;-72
2020/12/15 11:19:14;;;;;;;7.60;4.40;;;;;;;8.78;81.13;96189.84;5069942;28;20222;-72
2020/12/15 11:21:41;;;;;;;8.67;5.73;;;;;;;8.70;82.96;96189.63;5070058;28;20325;-73
2020/12/15 11:24:09;;;;;;;11.77;6.27;;;;;;;8.91;84.72;96181.50;5069816;28;20277;-73
2020/12/15 11:26:36;;;;;;;16.27;10.40;;;;;;;9.14;84.47;96184.50;5070041;28;20271;-72